Terminal Aerodrome Forecast
Issued by NWS

Home | Current Version | Previous Version | Text Only | Print | Product List | Glossary On
Versions: 1 2 3 4 5 6 7 8 9 10 11 12 13 14 15 16 17 18 19 20 21 22 23 24 25 26 27 28 29
000
FTUS41 KRLX 211100
TAFCKB
TAF
KCKB 211133Z 2112/2212 22004KT P6SM BKN035
     FM211700 22006KT P6SM VCTS BKN025CB
     FM211900 22006KT 6SM TSRA BR BKN025CB
     FM220200 VRB03KT 6SM BR VCTS BKN025CB
     FM220500 00000KT 3SM BR BKN025=

USA.gov is the U.S. government's official web portal to all federal, state and local government web resources and services.